Terminal Aerodrome Forecast
Issued by NWS

Home | Current Version | Previous Version | Text Only | Print | Product List | Glossary On
Versions: 1 2 3 4 5 6 7 8 9 10 11 12 13
000
FTUS46 KMFR 282359 CCA
TAFLMT
TAF COR
KLMT 282359Z 2900/2924 17017G25KT P6SM BKN200
     FM290300 19009KT P6SM OVC150
     FM290700 19014G20KT P6SM SCT060 BKN150
     FM291300 21020G30KT P6SM -SHRA BKN035 OVC050
     FM291600 22018G32KT P6SM SCT070=

USA.gov is the U.S. government's official web portal to all federal, state and local government web resources and services.